sensor_id;sensor_type;location;lat;lon;timestamp;P1;durP1;ratioP1;P2;durP2;ratioP2
12567;SDS011;6349;50.904;6.136;2023-04-09T00:00:34;11.23;;;10.17;;
12567;SDS011;6349;50.904;6.136;2023-04-09T00:02:35;13.17;;;11.87;;
12567;SDS011;6349;50.904;6.136;2023-04-09T00:04:35;12.97;;;11.77;;
12567;SDS011;6349;50.904;6.136;2023-04-09T00:06:36;16.17;;;14.57;;
12567;SDS011;6349;50.904;6.136;2023-04-09T00:08:36;15.83;;;14.30;;
12567;SDS011;6349;50.904;6.136;2023-04-09T00:10:37;16.70;;;15.00;;
12567;SDS011;6349;50.904;6.136;2023-04-09T00:12:37;15.97;;;14.37;;
12567;SDS011;6349;50.904;6.136;2023-04-09T00:14:38;16.60;;;14.93;;
12567;SDS011;6349;50.904;6.136;2023-04-09T00:16:38;17.73;;;15.93;;
12567;SDS011;6349;50.904;6.136;2023-04-09T00:18:39;16.40;;;14.80;;
12567;SDS011;6349;50.904;6.136;2023-04-09T00:20:40;16.30;;;14.77;;
12567;SDS011;6349;50.904;6.136;2023-04-09T00:22:41;16.30;;;14.73;;
12567;SDS011;6349;50.904;6.136;2023-04-09T00:24:42;16.90;;;14.90;;
12567;SDS011;6349;50.904;6.136;2023-04-09T00:26:42;17.23;;;15.63;;
12567;SDS011;6349;50.904;6.136;2023-04-09T00:28:43;17.47;;;15.80;;
12567;SDS011;6349;50.904;6.136;2023-04-09T00:30:44;17.50;;;15.80;;
12567;SDS011;6349;50.904;6.136;2023-04-09T00:32:44;18.23;;;16.37;;
12567;SDS011;6349;50.904;6.136;2023-04-09T00:34:45;17.70;;;16.00;;
12567;SDS011;6349;50.904;6.136;2023-04-09T00:36:46;16.07;;;14.50;;
12567;SDS011;6349;50.904;6.136;2023-04-09T00:38:46;17.43;;;15.77;;
12567;SDS011;6349;50.904;6.136;2023-04-09T00:40:49;17.00;;;15.30;;
12567;SDS011;6349;50.904;6.136;2023-04-09T00:42:50;15.43;;;14.03;;
12567;SDS011;6349;50.904;6.136;2023-04-09T00:44:51;14.60;;;13.20;;
12567;SDS011;6349;50.904;6.136;2023-04-09T00:46:51;18.03;;;16.23;;
12567;SDS011;6349;50.904;6.136;2023-04-09T00:48:53;18.40;;;16.60;;
12567;SDS011;6349;50.904;6.136;2023-04-09T00:50:54;19.50;;;17.60;;
12567;SDS011;6349;50.904;6.136;2023-04-09T00:52:54;18.77;;;16.97;;
12567;SDS011;6349;50.904;6.136;2023-04-09T00:54:55;17.83;;;16.10;;
12567;SDS011;6349;50.904;6.136;2023-04-09T00:56:58;19.20;;;17.30;;
12567;SDS011;6349;50.904;6.136;2023-04-09T00:58:58;17.70;;;16.00;;
12567;SDS011;6349;50.904;6.136;2023-04-09T01:01:00;19.10;;;17.20;;
12567;SDS011;6349;50.904;6.136;2023-04-09T01:03:00;16.83;;;15.23;;
12567;SDS011;6349;50.904;6.136;2023-04-09T01:05:01;18.17;;;16.40;;
12567;SDS011;6349;50.904;6.136;2023-04-09T01:09:29;19.13;;;17.23;;
12567;SDS011;6349;50.904;6.136;2023-04-09T01:11:45;19.40;;;17.50;;
12567;SDS011;6349;50.904;6.136;2023-04-09T01:14:19;19.73;;;17.73;;
12567;SDS011;6349;50.904;6.136;2023-04-09T01:16:33;19.07;;;17.17;;
12567;SDS011;6349;50.904;6.136;2023-04-09T01:18:38;17.43;;;15.67;;
12567;SDS011;6349;50.904;6.136;2023-04-09T01:20:59;15.90;;;14.30;;
12567;SDS011;6349;50.904;6.136;2023-04-09T01:23:18;15.47;;;13.87;;
12567;SDS011;6349;50.904;6.136;2023-04-09T01:25:28;17.17;;;15.53;;
12567;SDS011;6349;50.904;6.136;2023-04-09T01:27:46;18.47;;;16.67;;
12567;SDS011;6349;50.904;6.136;2023-04-09T01:30:12;17.60;;;15.80;;
12567;SDS011;6349;50.904;6.136;2023-04-09T01:32:15;19.77;;;17.77;;
12567;SDS011;6349;50.904;6.136;2023-04-09T01:34:17;21.17;;;18.33;;
12567;SDS011;6349;50.904;6.136;2023-04-09T01:36:19;19.60;;;17.60;;
12567;SDS011;6349;50.904;6.136;2023-04-09T01:38:20;19.37;;;17.53;;
12567;SDS011;6349;50.904;6.136;2023-04-09T01:40:23;20.20;;;18.20;;
12567;SDS011;6349;50.904;6.136;2023-04-09T01:42:24;18.83;;;16.93;;
12567;SDS011;6349;50.904;6.136;2023-04-09T01:44:25;19.80;;;17.60;;
12567;SDS011;6349;50.904;6.136;2023-04-09T01:46:28;18.57;;;16.70;;
12567;SDS011;6349;50.904;6.136;2023-04-09T01:48:30;20.70;;;18.50;;
12567;SDS011;6349;50.904;6.136;2023-04-09T01:50:32;20.60;;;18.50;;
12567;SDS011;6349;50.904;6.136;2023-04-09T01:52:32;20.60;;;18.50;;
12567;SDS011;6349;50.904;6.136;2023-04-09T01:54:33;19.23;;;17.23;;
12567;SDS011;6349;50.904;6.136;2023-04-09T01:56:44;19.63;;;17.73;;
12567;SDS011;6349;50.904;6.136;2023-04-09T01:58:46;19.57;;;17.50;;
12567;SDS011;6349;50.904;6.136;2023-04-09T02:00:47;19.33;;;17.33;;
12567;SDS011;6349;50.904;6.136;2023-04-09T02:02:56;19.47;;;17.53;;
12567;SDS011;6349;50.904;6.136;2023-04-09T02:05:03;17.77;;;15.93;;
12567;SDS011;6349;50.904;6.136;2023-04-09T02:09:10;17.70;;;15.90;;
12567;SDS011;6349;50.904;6.136;2023-04-09T02:11:12;19.00;;;17.00;;
12567;SDS011;6349;50.904;6.136;2023-04-09T02:13:14;19.57;;;17.57;;
12567;SDS011;6349;50.904;6.136;2023-04-09T02:15:18;18.83;;;16.97;;
12567;SDS011;6349;50.904;6.136;2023-04-09T02:17:19;18.13;;;16.33;;
12567;SDS011;6349;50.904;6.136;2023-04-09T02:19:21;19.23;;;17.33;;
12567;SDS011;6349;50.904;6.136;2023-04-09T02:21:22;19.07;;;17.07;;
12567;SDS011;6349;50.904;6.136;2023-04-09T02:23:23;20.97;;;17.90;;
12567;SDS011;6349;50.904;6.136;2023-04-09T02:25:24;19.10;;;17.20;;
12567;SDS011;6349;50.904;6.136;2023-04-09T02:27:25;19.07;;;17.17;;
12567;SDS011;6349;50.904;6.136;2023-04-09T02:29:26;19.37;;;17.43;;
12567;SDS011;6349;50.904;6.136;2023-04-09T02:31:27;18.57;;;16.67;;
12567;SDS011;6349;50.904;6.136;2023-04-09T02:33:27;19.47;;;17.40;;
12567;SDS011;6349;50.904;6.136;2023-04-09T02:35:28;19.40;;;17.30;;
12567;SDS011;6349;50.904;6.136;2023-04-09T02:37:29;19.57;;;17.47;;
12567;SDS011;6349;50.904;6.136;2023-04-09T02:39:29;18.80;;;16.80;;
12567;SDS011;6349;50.904;6.136;2023-04-09T02:41:30;19.60;;;17.60;;
12567;SDS011;6349;50.904;6.136;2023-04-09T02:43:30;18.80;;;16.80;;
12567;SDS011;6349;50.904;6.136;2023-04-09T02:45:31;20.43;;;17.50;;
12567;SDS011;6349;50.904;6.136;2023-04-09T02:47:32;19.27;;;17.27;;
12567;SDS011;6349;50.904;6.136;2023-04-09T02:49:32;18.80;;;16.87;;
12567;SDS011;6349;50.904;6.136;2023-04-09T02:51:33;17.30;;;15.50;;
12567;SDS011;6349;50.904;6.136;2023-04-09T02:53:34;17.00;;;15.30;;
12567;SDS011;6349;50.904;6.136;2023-04-09T02:55:36;19.10;;;17.10;;
12567;SDS011;6349;50.904;6.136;2023-04-09T02:57:37;18.97;;;17.07;;
12567;SDS011;6349;50.904;6.136;2023-04-09T02:59:37;18.03;;;16.00;;
12567;SDS011;6349;50.904;6.136;2023-04-09T03:01:39;19.10;;;16.80;;
12567;SDS011;6349;50.904;6.136;2023-04-09T03:03:40;18.93;;;16.93;;
12567;SDS011;6349;50.904;6.136;2023-04-09T03:05:42;19.33;;;16.80;;
12567;SDS011;6349;50.904;6.136;2023-04-09T03:07:43;18.80;;;16.80;;
12567;SDS011;6349;50.904;6.136;2023-04-09T03:09:44;19.27;;;17.37;;
12567;SDS011;6349;50.904;6.136;2023-04-09T03:11:44;19.37;;;17.37;;
12567;SDS011;6349;50.904;6.136;2023-04-09T03:13:45;20.03;;;17.97;;
12567;SDS011;6349;50.904;6.136;2023-04-09T03:15:49;18.03;;;16.20;;
12567;SDS011;6349;50.904;6.136;2023-04-09T03:17:51;20.97;;;17.77;;
12567;SDS011;6349;50.904;6.136;2023-04-09T03:19:52;19.00;;;16.97;;
12567;SDS011;6349;50.904;6.136;2023-04-09T03:21:52;19.63;;;17.63;;
12567;SDS011;6349;50.904;6.136;2023-04-09T03:23:53;18.67;;;16.57;;
12567;SDS011;6349;50.904;6.136;2023-04-09T03:26:01;18.63;;;16.73;;
12567;SDS011;6349;50.904;6.136;2023-04-09T03:28:03;17.93;;;16.03;;
12567;SDS011;6349;50.904;6.136;2023-04-09T03:30:04;18.53;;;16.53;;
12567;SDS011;6349;50.904;6.136;2023-04-09T03:32:05;19.67;;;17.57;;
12567;SDS011;6349;50.904;6.136;2023-04-09T03:34:05;19.70;;;17.63;;
12567;SDS011;6349;50.904;6.136;2023-04-09T03:36:06;20.37;;;18.13;;
12567;SDS011;6349;50.904;6.136;2023-04-09T03:38:07;19.47;;;17.37;;
12567;SDS011;6349;50.904;6.136;2023-04-09T03:40:08;18.93;;;16.47;;
12567;SDS011;6349;50.904;6.136;2023-04-09T03:42:09;20.37;;;18.27;;
12567;SDS011;6349;50.904;6.136;2023-04-09T03:44:10;22.27;;;19.23;;
12567;SDS011;6349;50.904;6.136;2023-04-09T03:46:13;19.93;;;17.57;;
12567;SDS011;6349;50.904;6.136;2023-04-09T03:48:15;19.87;;;17.77;;
12567;SDS011;6349;50.904;6.136;2023-04-09T03:50:15;18.90;;;16.90;;
12567;SDS011;6349;50.904;6.136;2023-04-09T03:52:16;20.93;;;18.70;;
12567;SDS011;6349;50.904;6.136;2023-04-09T03:54:17;20.57;;;18.37;;
12567;SDS011;6349;50.904;6.136;2023-04-09T03:56:17;21.43;;;18.23;;
12567;SDS011;6349;50.904;6.136;2023-04-09T03:58:18;22.20;;;19.37;;
12567;SDS011;6349;50.904;6.136;2023-04-09T04:00:18;21.83;;;18.90;;
12567;SDS011;6349;50.904;6.136;2023-04-09T04:02:19;20.43;;;18.33;;
12567;SDS011;6349;50.904;6.136;2023-04-09T04:04:20;20.03;;;17.93;;
12567;SDS011;6349;50.904;6.136;2023-04-09T04:06:20;21.43;;;18.50;;
12567;SDS011;6349;50.904;6.136;2023-04-09T04:08:21;21.77;;;18.47;;
12567;SDS011;6349;50.904;6.136;2023-04-09T04:10:22;19.40;;;17.20;;
12567;SDS011;6349;50.904;6.136;2023-04-09T04:12:22;20.23;;;17.57;;
12567;SDS011;6349;50.904;6.136;2023-04-09T04:14:23;18.73;;;16.70;;
12567;SDS011;6349;50.904;6.136;2023-04-09T04:16:23;20.87;;;18.57;;
12567;SDS011;6349;50.904;6.136;2023-04-09T04:18:24;22.83;;;18.07;;
12567;SDS011;6349;50.904;6.136;2023-04-09T04:20:25;21.50;;;17.87;;
12567;SDS011;6349;50.904;6.136;2023-04-09T04:22:25;20.17;;;17.67;;
12567;SDS011;6349;50.904;6.136;2023-04-09T04:24:26;21.90;;;18.90;;
12567;SDS011;6349;50.904;6.136;2023-04-09T04:26:26;19.83;;;17.73;;
12567;SDS011;6349;50.904;6.136;2023-04-09T04:28:27;20.13;;;17.93;;
12567;SDS011;6349;50.904;6.136;2023-04-09T04:30:27;21.07;;;18.50;;
12567;SDS011;6349;50.904;6.136;2023-04-09T04:32:28;20.00;;;17.90;;
12567;SDS011;6349;50.904;6.136;2023-04-09T04:34:29;21.03;;;18.83;;
12567;SDS011;6349;50.904;6.136;2023-04-09T04:36:30;21.20;;;18.87;;
12567;SDS011;6349;50.904;6.136;2023-04-09T04:38:30;20.67;;;18.47;;
12567;SDS011;6349;50.904;6.136;2023-04-09T04:40:31;20.93;;;18.10;;
12567;SDS011;6349;50.904;6.136;2023-04-09T04:42:32;19.90;;;17.37;;
12567;SDS011;6349;50.904;6.136;2023-04-09T04:44:33;20.83;;;18.70;;
12567;SDS011;6349;50.904;6.136;2023-04-09T04:46:33;20.90;;;18.70;;
12567;SDS011;6349;50.904;6.136;2023-04-09T04:48:34;21.63;;;18.77;;
12567;SDS011;6349;50.904;6.136;2023-04-09T04:50:34;21.10;;;18.87;;
12567;SDS011;6349;50.904;6.136;2023-04-09T04:52:35;22.33;;;18.57;;
12567;SDS011;6349;50.904;6.136;2023-04-09T04:54:37;20.73;;;17.90;;
12567;SDS011;6349;50.904;6.136;2023-04-09T04:56:38;20.80;;;18.13;;
12567;SDS011;6349;50.904;6.136;2023-04-09T04:58:39;20.60;;;18.40;;
12567;SDS011;6349;50.904;6.136;2023-04-09T05:00:39;21.07;;;18.70;;
12567;SDS011;6349;50.904;6.136;2023-04-09T05:02:40;20.00;;;17.80;;
12567;SDS011;6349;50.904;6.136;2023-04-09T05:04:40;22.33;;;18.90;;
12567;SDS011;6349;50.904;6.136;2023-04-09T05:06:41;20.63;;;18.43;;
12567;SDS011;6349;50.904;6.136;2023-04-09T05:08:41;22.50;;;19.07;;
12567;SDS011;6349;50.904;6.136;2023-04-09T05:10:42;22.27;;;19.93;;
12567;SDS011;6349;50.904;6.136;2023-04-09T05:12:43;21.53;;;19.10;;
12567;SDS011;6349;50.904;6.136;2023-04-09T05:14:44;21.03;;;18.80;;
12567;SDS011;6349;50.904;6.136;2023-04-09T05:16:44;21.37;;;19.13;;
12567;SDS011;6349;50.904;6.136;2023-04-09T05:18:45;21.00;;;18.70;;
12567;SDS011;6349;50.904;6.136;2023-04-09T05:20:46;21.80;;;19.10;;
12567;SDS011;6349;50.904;6.136;2023-04-09T05:22:47;22.67;;;19.57;;
12567;SDS011;6349;50.904;6.136;2023-04-09T05:24:47;21.73;;;18.43;;
12567;SDS011;6349;50.904;6.136;2023-04-09T05:26:48;22.87;;;19.67;;
12567;SDS011;6349;50.904;6.136;2023-04-09T05:28:48;21.53;;;19.23;;
12567;SDS011;6349;50.904;6.136;2023-04-09T05:30:49;22.13;;;19.80;;
12567;SDS011;6349;50.904;6.136;2023-04-09T05:32:50;21.30;;;18.40;;
12567;SDS011;6349;50.904;6.136;2023-04-09T05:34:50;21.53;;;19.23;;
12567;SDS011;6349;50.904;6.136;2023-04-09T05:36:51;21.60;;;18.93;;
12567;SDS011;6349;50.904;6.136;2023-04-09T05:38:53;21.37;;;19.07;;
12567;SDS011;6349;50.904;6.136;2023-04-09T05:40:54;22.10;;;18.70;;
12567;SDS011;6349;50.904;6.136;2023-04-09T05:42:54;23.73;;;19.83;;
12567;SDS011;6349;50.904;6.136;2023-04-09T05:44:55;21.53;;;19.23;;
12567;SDS011;6349;50.904;6.136;2023-04-09T05:46:56;21.90;;;19.50;;
12567;SDS011;6349;50.904;6.136;2023-04-09T05:48:56;24.53;;;20.17;;
12567;SDS011;6349;50.904;6.136;2023-04-09T05:50:57;22.73;;;18.93;;
12567;SDS011;6349;50.904;6.136;2023-04-09T05:52:58;23.80;;;19.80;;
12567;SDS011;6349;50.904;6.136;2023-04-09T05:54:58;24.17;;;20.97;;
12567;SDS011;6349;50.904;6.136;2023-04-09T05:56:59;23.77;;;19.97;;
12567;SDS011;6349;50.904;6.136;2023-04-09T05:59:00;22.87;;;20.40;;
12567;SDS011;6349;50.904;6.136;2023-04-09T06:01:00;24.70;;;21.30;;
12567;SDS011;6349;50.904;6.136;2023-04-09T06:03:01;25.57;;;21.00;;
12567;SDS011;6349;50.904;6.136;2023-04-09T06:05:01;26.53;;;21.33;;
12567;SDS011;6349;50.904;6.136;2023-04-09T06:07:02;24.07;;;21.33;;
12567;SDS011;6349;50.904;6.136;2023-04-09T06:09:03;24.60;;;21.73;;
12567;SDS011;6349;50.904;6.136;2023-04-09T06:11:07;27.07;;;22.13;;
12567;SDS011;6349;50.904;6.136;2023-04-09T06:13:09;24.87;;;20.50;;
12567;SDS011;6349;50.904;6.136;2023-04-09T06:15:10;24.00;;;21.00;;
12567;SDS011;6349;50.904;6.136;2023-04-09T06:17:10;23.63;;;20.53;;
12567;SDS011;6349;50.904;6.136;2023-04-09T06:19:11;24.73;;;20.43;;
12567;SDS011;6349;50.904;6.136;2023-04-09T06:21:11;24.50;;;20.37;;
12567;SDS011;6349;50.904;6.136;2023-04-09T06:23:15;23.83;;;20.17;;
12567;SDS011;6349;50.904;6.136;2023-04-09T06:25:15;25.03;;;20.23;;
12567;SDS011;6349;50.904;6.136;2023-04-09T06:27:16;24.43;;;20.97;;
12567;SDS011;6349;50.904;6.136;2023-04-09T06:29:17;23.97;;;21.37;;
12567;SDS011;6349;50.904;6.136;2023-04-09T06:31:18;23.20;;;20.43;;
12567;SDS011;6349;50.904;6.136;2023-04-09T06:33:19;25.87;;;21.40;;
12567;SDS011;6349;50.904;6.136;2023-04-09T06:35:20;23.53;;;20.73;;
12567;SDS011;6349;50.904;6.136;2023-04-09T06:37:21;24.10;;;21.10;;
12567;SDS011;6349;50.904;6.136;2023-04-09T06:39:22;23.97;;;20.93;;
12567;SDS011;6349;50.904;6.136;2023-04-09T06:41:24;23.50;;;20.73;;
12567;SDS011;6349;50.904;6.136;2023-04-09T06:43:25;22.67;;;20.27;;
12567;SDS011;6349;50.904;6.136;2023-04-09T06:45:26;25.20;;;21.30;;
12567;SDS011;6349;50.904;6.136;2023-04-09T06:47:26;26.43;;;21.20;;
12567;SDS011;6349;50.904;6.136;2023-04-09T06:49:27;22.57;;;20.00;;
12567;SDS011;6349;50.904;6.136;2023-04-09T06:51:27;22.93;;;20.40;;
12567;SDS011;6349;50.904;6.136;2023-04-09T06:53:28;27.67;;;21.90;;
12567;SDS011;6349;50.904;6.136;2023-04-09T06:55:29;25.30;;;21.97;;
12567;SDS011;6349;50.904;6.136;2023-04-09T06:57:29;26.47;;;22.33;;
12567;SDS011;6349;50.904;6.136;2023-04-09T06:59:30;28.07;;;23.50;;
12567;SDS011;6349;50.904;6.136;2023-04-09T07:01:31;26.57;;;23.20;;
12567;SDS011;6349;50.904;6.136;2023-04-09T07:03:32;27.23;;;24.30;;
12567;SDS011;6349;50.904;6.136;2023-04-09T07:05:32;32.43;;;24.83;;
12567;SDS011;6349;50.904;6.136;2023-04-09T07:07:33;28.40;;;24.37;;
12567;SDS011;6349;50.904;6.136;2023-04-09T07:09:34;26.67;;;23.77;;
12567;SDS011;6349;50.904;6.136;2023-04-09T07:11:35;27.73;;;23.73;;
12567;SDS011;6349;50.904;6.136;2023-04-09T07:13:36;26.33;;;23.53;;
12567;SDS011;6349;50.904;6.136;2023-04-09T07:15:36;28.67;;;23.80;;
12567;SDS011;6349;50.904;6.136;2023-04-09T07:17:37;27.77;;;24.77;;
12567;SDS011;6349;50.904;6.136;2023-04-09T07:19:37;27.37;;;23.87;;
12567;SDS011;6349;50.904;6.136;2023-04-09T07:21:38;27.70;;;23.80;;
12567;SDS011;6349;50.904;6.136;2023-04-09T07:23:38;28.53;;;24.57;;
12567;SDS011;6349;50.904;6.136;2023-04-09T07:25:39;27.77;;;24.80;;
12567;SDS011;6349;50.904;6.136;2023-04-09T07:27:40;28.97;;;25.20;;
12567;SDS011;6349;50.904;6.136;2023-04-09T07:29:42;25.93;;;23.17;;
12567;SDS011;6349;50.904;6.136;2023-04-09T07:31:43;28.40;;;25.30;;
12567;SDS011;6349;50.904;6.136;2023-04-09T07:33:44;31.40;;;24.53;;
12567;SDS011;6349;50.904;6.136;2023-04-09T07:35:45;27.70;;;24.20;;
12567;SDS011;6349;50.904;6.136;2023-04-09T07:37:45;29.87;;;24.40;;
12567;SDS011;6349;50.904;6.136;2023-04-09T07:39:46;27.00;;;24.10;;
12567;SDS011;6349;50.904;6.136;2023-04-09T07:41:48;28.57;;;24.70;;
12567;SDS011;6349;50.904;6.136;2023-04-09T07:43:49;27.07;;;23.67;;
12567;SDS011;6349;50.904;6.136;2023-04-09T07:45:50;27.23;;;24.33;;
12567;SDS011;6349;50.904;6.136;2023-04-09T07:47:51;25.60;;;22.90;;
12567;SDS011;6349;50.904;6.136;2023-04-09T07:49:52;26.03;;;23.27;;
12567;SDS011;6349;50.904;6.136;2023-04-09T07:51:52;23.50;;;21.03;;
12567;SDS011;6349;50.904;6.136;2023-04-09T07:53:53;26.20;;;22.33;;
12567;SDS011;6349;50.904;6.136;2023-04-09T07:55:53;22.50;;;20.27;;
12567;SDS011;6349;50.904;6.136;2023-04-09T07:57:54;26.67;;;21.97;;
12567;SDS011;6349;50.904;6.136;2023-04-09T07:59:55;24.67;;;21.27;;
12567;SDS011;6349;50.904;6.136;2023-04-09T08:01:55;22.10;;;19.73;;
12567;SDS011;6349;50.904;6.136;2023-04-09T08:03:56;22.57;;;20.20;;
12567;SDS011;6349;50.904;6.136;2023-04-09T08:05:57;22.10;;;19.80;;
12567;SDS011;6349;50.904;6.136;2023-04-09T08:07:57;22.33;;;19.60;;
12567;SDS011;6349;50.904;6.136;2023-04-09T08:09:58;22.23;;;19.50;;
12567;SDS011;6349;50.904;6.136;2023-04-09T08:11:58;21.60;;;19.23;;
12567;SDS011;6349;50.904;6.136;2023-04-09T08:14:00;21.87;;;19.10;;
12567;SDS011;6349;50.904;6.136;2023-04-09T08:16:01;22.43;;;19.87;;
12567;SDS011;6349;50.904;6.136;2023-04-09T08:18:02;21.30;;;19.10;;
12567;SDS011;6349;50.904;6.136;2023-04-09T08:20:03;20.50;;;18.40;;
12567;SDS011;6349;50.904;6.136;2023-04-09T08:22:05;20.90;;;17.87;;
12567;SDS011;6349;50.904;6.136;2023-04-09T08:24:05;19.50;;;17.50;;
12567;SDS011;6349;50.904;6.136;2023-04-09T08:26:06;20.20;;;18.10;;
12567;SDS011;6349;50.904;6.136;2023-04-09T08:28:07;19.53;;;17.63;;
12567;SDS011;6349;50.904;6.136;2023-04-09T08:30:07;19.90;;;17.50;;
12567;SDS011;6349;50.904;6.136;2023-04-09T08:32:08;19.00;;;16.40;;
12567;SDS011;6349;50.904;6.136;2023-04-09T08:34:09;19.23;;;17.23;;
12567;SDS011;6349;50.904;6.136;2023-04-09T08:36:10;18.50;;;16.43;;
12567;SDS011;6349;50.904;6.136;2023-04-09T08:38:10;20.43;;;17.97;;
12567;SDS011;6349;50.904;6.136;2023-04-09T08:40:11;18.43;;;16.53;;
12567;SDS011;6349;50.904;6.136;2023-04-09T08:42:12;19.00;;;17.00;;
12567;SDS011;6349;50.904;6.136;2023-04-09T08:44:14;18.80;;;16.43;;
12567;SDS011;6349;50.904;6.136;2023-04-09T08:46:15;16.57;;;14.87;;
12567;SDS011;6349;50.904;6.136;2023-04-09T08:48:16;17.63;;;15.83;;
12567;SDS011;6349;50.904;6.136;2023-04-09T08:50:18;17.17;;;15.37;;
12567;SDS011;6349;50.904;6.136;2023-04-09T08:52:18;17.70;;;15.87;;
12567;SDS011;6349;50.904;6.136;2023-04-09T08:54:32;19.33;;;17.23;;
12567;SDS011;6349;50.904;6.136;2023-04-09T08:56:33;17.07;;;15.20;;
12567;SDS011;6349;50.904;6.136;2023-04-09T08:58:33;16.40;;;14.70;;
12567;SDS011;6349;50.904;6.136;2023-04-09T09:00:34;16.33;;;14.67;;
12567;SDS011;6349;50.904;6.136;2023-04-09T09:02:35;17.40;;;15.00;;
12567;SDS011;6349;50.904;6.136;2023-04-09T09:04:47;15.57;;;14.00;;
12567;SDS011;6349;50.904;6.136;2023-04-09T09:06:48;14.37;;;12.97;;
12567;SDS011;6349;50.904;6.136;2023-04-09T09:11:00;12.13;;;10.93;;
12567;SDS011;6349;50.904;6.136;2023-04-09T09:13:00;12.77;;;11.50;;
12567;SDS011;6349;50.904;6.136;2023-04-09T09:15:24;11.87;;;10.67;;
12567;SDS011;6349;50.904;6.136;2023-04-09T09:17:27;12.57;;;10.57;;
12567;SDS011;6349;50.904;6.136;2023-04-09T09:19:28;10.83;;;9.70;;
12567;SDS011;6349;50.904;6.136;2023-04-09T09:21:32;10.83;;;9.40;;
12567;SDS011;6349;50.904;6.136;2023-04-09T09:23:34;12.00;;;9.90;;
12567;SDS011;6349;50.904;6.136;2023-04-09T09:25:39;10.07;;;9.07;;
12567;SDS011;6349;50.904;6.136;2023-04-09T09:27:40;10.40;;;9.10;;
12567;SDS011;6349;50.904;6.136;2023-04-09T09:29:42;10.00;;;8.70;;
12567;SDS011;6349;50.904;6.136;2023-04-09T09:31:47;8.53;;;7.50;;
12567;SDS011;6349;50.904;6.136;2023-04-09T09:33:49;7.87;;;7.03;;
12567;SDS011;6349;50.904;6.136;2023-04-09T09:35:51;7.53;;;6.73;;
12567;SDS011;6349;50.904;6.136;2023-04-09T09:38:00;6.73;;;6.13;;
12567;SDS011;6349;50.904;6.136;2023-04-09T09:40:02;7.20;;;6.50;;
12567;SDS011;6349;50.904;6.136;2023-04-09T09:42:06;6.50;;;5.90;;
12567;SDS011;6349;50.904;6.136;2023-04-09T09:44:08;6.47;;;5.87;;
12567;SDS011;6349;50.904;6.136;2023-04-09T09:46:10;6.40;;;5.80;;
12567;SDS011;6349;50.904;6.136;2023-04-09T09:48:10;5.90;;;5.17;;
12567;SDS011;6349;50.904;6.136;2023-04-09T09:50:11;5.50;;;5.00;;
12567;SDS011;6349;50.904;6.136;2023-04-09T09:52:12;5.43;;;4.83;;
12567;SDS011;6349;50.904;6.136;2023-04-09T09:54:13;5.90;;;5.30;;
12567;SDS011;6349;50.904;6.136;2023-04-09T09:56:18;6.67;;;5.27;;
12567;SDS011;6349;50.904;6.136;2023-04-09T09:58:22;6.47;;;5.10;;
12567;SDS011;6349;50.904;6.136;2023-04-09T10:00:27;6.07;;;4.80;;
12567;SDS011;6349;50.904;6.136;2023-04-09T10:02:31;5.93;;;4.87;;
12567;SDS011;6349;50.904;6.136;2023-04-09T10:04:39;5.20;;;4.60;;
12567;SDS011;6349;50.904;6.136;2023-04-09T10:06:43;5.37;;;4.87;;
12567;SDS011;6349;50.904;6.136;2023-04-09T10:08:44;5.60;;;5.10;;
12567;SDS011;6349;50.904;6.136;2023-04-09T10:10:49;4.60;;;4.20;;
12567;SDS011;6349;50.904;6.136;2023-04-09T10:12:51;5.13;;;4.40;;
12567;SDS011;6349;50.904;6.136;2023-04-09T10:14:52;5.13;;;4.63;;
12567;SDS011;6349;50.904;6.136;2023-04-09T10:16:55;4.80;;;4.30;;
12567;SDS011;6349;50.904;6.136;2023-04-09T10:18:57;5.67;;;4.20;;
12567;SDS011;6349;50.904;6.136;2023-04-09T10:21:06;5.70;;;4.40;;
12567;SDS011;6349;50.904;6.136;2023-04-09T10:23:14;4.77;;;4.27;;
12567;SDS011;6349;50.904;6.136;2023-04-09T10:25:23;4.90;;;4.47;;
12567;SDS011;6349;50.904;6.136;2023-04-09T10:27:24;4.77;;;4.33;;
12567;SDS011;6349;50.904;6.136;2023-04-09T10:29:27;4.73;;;4.23;;
12567;SDS011;6349;50.904;6.136;2023-04-09T10:31:28;4.90;;;4.50;;
12567;SDS011;6349;50.904;6.136;2023-04-09T10:33:53;4.57;;;4.17;;
12567;SDS011;6349;50.904;6.136;2023-04-09T10:36:04;4.80;;;4.40;;
12567;SDS011;6349;50.904;6.136;2023-04-09T10:38:08;5.30;;;4.80;;
12567;SDS011;6349;50.904;6.136;2023-04-09T10:40:11;4.60;;;4.20;;
12567;SDS011;6349;50.904;6.136;2023-04-09T10:42:34;5.27;;;4.77;;
12567;SDS011;6349;50.904;6.136;2023-04-09T10:44:39;5.40;;;4.90;;
12567;SDS011;6349;50.904;6.136;2023-04-09T10:46:43;5.40;;;4.90;;
12567;SDS011;6349;50.904;6.136;2023-04-09T10:48:44;5.07;;;4.57;;
12567;SDS011;6349;50.904;6.136;2023-04-09T10:50:45;5.77;;;4.37;;
12567;SDS011;6349;50.904;6.136;2023-04-09T10:52:52;4.90;;;4.40;;
12567;SDS011;6349;50.904;6.136;2023-04-09T10:54:54;4.60;;;4.20;;
12567;SDS011;6349;50.904;6.136;2023-04-09T10:59:07;4.83;;;4.37;;
12567;SDS011;6349;50.904;6.136;2023-04-09T11:01:08;5.10;;;4.70;;
12567;SDS011;6349;50.904;6.136;2023-04-09T11:03:12;4.93;;;4.50;;
12567;SDS011;6349;50.904;6.136;2023-04-09T11:07:39;4.67;;;4.27;;
12567;SDS011;6349;50.904;6.136;2023-04-09T11:09:48;4.80;;;4.40;;
12567;SDS011;6349;50.904;6.136;2023-04-09T11:11:52;4.63;;;4.23;;
12567;SDS011;6349;50.904;6.136;2023-04-09T11:13:57;4.57;;;4.17;;
12567;SDS011;6349;50.904;6.136;2023-04-09T11:15:58;5.10;;;4.60;;
12567;SDS011;6349;50.904;6.136;2023-04-09T11:18:00;4.93;;;4.43;;
12567;SDS011;6349;50.904;6.136;2023-04-09T11:20:01;4.87;;;4.37;;
12567;SDS011;6349;50.904;6.136;2023-04-09T11:22:05;4.60;;;4.20;;
12567;SDS011;6349;50.904;6.136;2023-04-09T11:24:06;5.17;;;4.67;;
12567;SDS011;6349;50.904;6.136;2023-04-09T11:26:08;6.17;;;4.53;;
12567;SDS011;6349;50.904;6.136;2023-04-09T11:28:08;5.00;;;4.50;;
12567;SDS011;6349;50.904;6.136;2023-04-09T11:30:09;5.40;;;4.90;;
12567;SDS011;6349;50.904;6.136;2023-04-09T11:32:11;4.83;;;4.43;;
12567;SDS011;6349;50.904;6.136;2023-04-09T11:34:12;4.70;;;4.30;;
12567;SDS011;6349;50.904;6.136;2023-04-09T11:36:12;4.90;;;4.40;;
12567;SDS011;6349;50.904;6.136;2023-04-09T11:38:13;4.57;;;4.17;;
12567;SDS011;6349;50.904;6.136;2023-04-09T11:40:18;5.07;;;4.57;;
12567;SDS011;6349;50.904;6.136;2023-04-09T11:42:23;4.73;;;4.17;;
12567;SDS011;6349;50.904;6.136;2023-04-09T11:44:24;4.25;;;3.85;;
12567;SDS011;6349;50.904;6.136;2023-04-09T11:46:25;5.23;;;4.70;;
12567;SDS011;6349;50.904;6.136;2023-04-09T11:48:26;4.67;;;4.27;;
12567;SDS011;6349;50.904;6.136;2023-04-09T11:50:27;4.80;;;4.40;;
12567;SDS011;6349;50.904;6.136;2023-04-09T11:52:27;4.47;;;4.00;;
12567;SDS011;6349;50.904;6.136;2023-04-09T11:54:31;4.83;;;4.33;;
12567;SDS011;6349;50.904;6.136;2023-04-09T11:56:34;4.77;;;4.37;;
12567;SDS011;6349;50.904;6.136;2023-04-09T11:58:35;4.90;;;4.50;;
12567;SDS011;6349;50.904;6.136;2023-04-09T12:00:38;5.93;;;4.43;;
12567;SDS011;6349;50.904;6.136;2023-04-09T12:02:40;4.70;;;4.30;;
12567;SDS011;6349;50.904;6.136;2023-04-09T12:04:48;5.15;;;4.65;;
12567;SDS011;6349;50.904;6.136;2023-04-09T12:06:50;5.63;;;4.63;;
12567;SDS011;6349;50.904;6.136;2023-04-09T12:08:57;5.13;;;4.63;;
12567;SDS011;6349;50.904;6.136;2023-04-09T12:11:06;4.85;;;4.38;;
12567;SDS011;6349;50.904;6.136;2023-04-09T12:13:08;5.20;;;4.70;;
12567;SDS011;6349;50.904;6.136;2023-04-09T12:15:31;5.23;;;4.23;;
12567;SDS011;6349;50.904;6.136;2023-04-09T12:17:35;4.87;;;4.40;;
12567;SDS011;6349;50.904;6.136;2023-04-09T12:19:37;4.87;;;4.37;;
12567;SDS011;6349;50.904;6.136;2023-04-09T12:21:54;4.63;;;4.23;;